Terminal Aerodrome Forecast
Issued by NWS Grand Forks, ND

Home | Current Version | Previous Version | Graphics & Text | Print | Product List | Glossary On
Versions: 1 2 3 4 5 6 7 8 9 10 11 12 13 14 15 16 17 18 19 20 21 22 23
000
FTUS43 KFGF 240500 AAB
TAFFAR
TAF AMD
KFAR 240501Z 2405/2424 33020KT P6SM OVC016
      TEMPO 2405/2409 4SM -SN BR OVC024
     FM241200 34028G35KT P6SM BKN025=

USA.gov is the U.S. government's official web portal to all federal, state and local government web resources and services.